Aeroporto :
LOGIN :

Iscrizione | Disclaimer

   EN    FR    IT 

 










Sommario :    VFR   VFR Marginale   IFR   IFR Intensivo   IFR Molto Intensivo
Visibilità : 
Base nubi : 
>= 8 km
>= 3000ft
5 / 8 km
1000 / 3000 ft
1500m / 5 km
500 / 1000 ft
800 / 1500m
200 / 500 ft
< 800m
< 200 ft
Simboli :   Temporali  Nebbia  Neve Forte  Precipitazioni Forti  Vento > 20 kt
SIGMETs :   Varie  Temporali  Ghiacco  Turbolenza  Onda orograficha  Ceneri Vulcaniche







- Altitudine del aeroporto : 74 ft
- Codice IATA : EIN


EHEH - Eindhoven

ULTIMO METAR :
  • 171255Z AUTO 20007KT 140V280 9999 FEW063 25/11 Q1019 BLU 18006KT CAVOK

METARs OBSOLETI :
  • 171225Z AUTO VRB04KT 9999 FEW054 25/11 Q1019 BLU 18008KT 9999 FEW045
  • 171155Z AUTO 21005KT 160V260 9999 FEW052 25/11 Q1019 BLU 18008KT 9999 FEW045
  • 171125Z AUTO 22006KT 170V260 9999 NCD 25/12 Q1019 BLU 18008KT 9999 FEW045
  • 171055Z AUTO VRB05KT 9999 SCT049 BKN280 25/12 Q1019 BLU 18008KT 9999 FEW045
  • 171042Z AUTO 20006KT 140V230 9999 FEW050 BKN290 25/12 Q1019 BLU 18008KT 9999 FEW045
  • 171025Z AUTO 16006KT 120V230 9999 SCT048 BKN270 24/11 Q1020 BLU 16008KT 9999 FEW040

TAF TAF EHEH
Valido dal 17 a 12 ore il 18 a 18 ore UTC


171110Z 1712/1818 20005KT CAVOK
BECMG 1718/1720 VRB03KT
PROB30 1800/1804 4000 BR MIFG
PROB30
TEMPO 1812/1818 4000 SHRA SCT040CB
Nessun NOTAM noto per questo aeroporto.



MetMap, La meteo Aeronautica in un colpo d'occhio ! - Copyright ORBIFLY Dicembre 2007 - Disclaimer

ORBIFLY MET'MAP TEAM :

Programmazione e sviluppo : Alexandra Zaïnal
Concezione e sviluppo : Baudouin d'Aumeries
Co-Programmazione e sviluppo : Marc-Olivier Méhu
Supporto tecnico e logistico : Manuel Goepfert
Aiuto per la traduzione : Arnaldo La Scala

Contatto : metmap@orbifly.com




FONTI E CREDITI :

   NOAA